Time;durP1;ratioP1;P1;durP2;ratioP2;P2;SDS_P1;SDS_P2;PMS_P1;PMS_P2;Temp;Humidity;BMP_temperature;BMP_pressure;BME280_temperature;BME280_humidity;BME280_pressure;Samples;Min_cycle;Max_cycle;Signal;HPM_P1;HPM_P2
2023/07/25 00:00:10;;;;;;;25.02;13.50;;;;;;;25.74;45.44;95004.81;4933945;28;20120;-85
2023/07/25 00:02:36;;;;;;;29.20;11.68;;;;;;;25.50;45.27;94958.38;4934553;28;20382;-85
2023/07/25 00:05:02;;;;;;;20.50;11.68;;;;;;;25.55;45.84;94994.13;4924480;29;20036;-85
2023/07/25 00:07:28;;;;;;;26.25;13.07;;;;;;;25.03;45.61;94907.50;4926837;28;20038;-85
2023/07/25 00:09:53;;;;;;;20.40;11.32;;;;;;;25.44;46.30;95006.81;4934411;29;20028;-85
2023/07/25 00:12:19;;;;;;;21.85;12.57;;;;;;;25.07;46.10;94944.38;4948509;29;20143;-86
2023/07/25 00:14:44;;;;;;;24.75;12.85;;;;;;;24.99;46.06;94937.31;4935480;29;20513;-85
2023/07/25 00:17:09;;;;;;;21.63;12.48;;;;;;;25.16;46.71;95003.78;4932800;29;20044;-85
2023/07/25 00:19:35;;;;;;;22.08;11.68;;;;;;;24.75;46.79;94937.75;4933259;28;20054;-86
2023/07/25 00:22:01;;;;;;;27.45;13.05;;;;;;;24.73;46.72;94915.66;4916603;29;20024;-85
2023/07/25 00:24:26;;;;;;;22.15;13.23;;;;;;;24.49;47.07;94882.44;4915648;29;20046;-85
2023/07/25 00:26:52;;;;;;;23.48;12.95;;;;;;;24.62;47.11;94912.84;4946091;29;20119;-85
2023/07/25 00:29:17;;;;;;;29.92;13.50;;;;;;;25.11;46.72;94975.03;4919354;29;20093;-86
2023/07/25 00:31:43;;;;;;;22.35;11.98;;;;;;;24.70;46.98;94917.19;4960648;28;20087;-86
2023/07/25 00:34:08;;;;;;;23.67;13.40;;;;;;;25.09;47.10;94990.13;4919618;28;20411;-85
2023/07/25 00:36:34;;;;;;;24.70;13.43;;;;;;;25.13;46.99;94986.31;4959052;28;20040;-85
2023/07/25 00:38:59;;;;;;;26.63;12.82;;;;;;;24.54;47.71;94903.03;4914602;28;20131;-86
2023/07/25 00:41:25;;;;;;;28.45;13.77;;;;;;;24.72;47.89;94931.13;4924640;29;20516;-85
2023/07/25 00:43:50;;;;;;;25.75;13.73;;;;;;;24.05;48.04;94851.66;4956586;28;20123;-86
2023/07/25 00:46:16;;;;;;;25.88;13.98;;;;;;;24.46;48.22;94907.59;4926722;29;20114;-86
2023/07/25 00:48:46;;;;;;;24.50;14.10;;;;;;;24.64;48.06;94929.53;4953618;28;20039;-85
2023/07/25 00:51:12;;;;;;;26.85;13.45;;;;;;;24.66;48.01;94937.25;4929782;29;20053;-85
2023/07/25 00:53:37;;;;;;;27.60;13.43;;;;;;;24.26;47.91;94864.75;4933626;29;20035;-85
2023/07/25 00:56:05;;;;;;;25.92;13.77;;;;;;;24.41;48.02;94886.22;4966120;28;20437;-86
2023/07/25 00:58:31;;;;;;;27.70;13.20;;;;;;;24.68;47.86;94929.53;4948573;28;20032;-85
2023/07/25 01:01:04;;;;;;;24.38;13.32;;;;;;;25.04;47.93;94974.94;4914853;28;20043;-85
2023/07/25 01:03:37;;;;;;;26.40;12.40;;;;;;;24.73;48.04;94921.84;4918422;28;20142;-85
2023/07/25 01:06:05;;;;;;;22.42;12.80;;;;;;;25.17;47.47;94970.06;4932051;29;20036;-86
2023/07/25 01:08:30;;;;;;;28.08;13.10;;;;;;;25.01;48.13;94955.94;4922883;29;20028;-86
2023/07/25 01:10:55;;;;;;;24.25;13.05;;;;;;;23.99;48.40;94823.34;4926637;28;20501;-85
2023/07/25 01:13:22;;;;;;;24.85;13.00;;;;;;;23.89;48.53;94815.84;4937038;29;20134;-86
2023/07/25 01:15:49;;;;;;;26.00;13.25;;;;;;;23.07;49.03;94718.00;4954436;28;20027;-85
2023/07/25 01:18:15;;;;;;;23.38;13.10;;;;;;;23.46;49.04;94766.50;4937264;28;20039;-85
2023/07/25 01:20:41;;;;;;;24.42;13.82;;;;;;;24.38;48.56;94903.22;4936682;28;20039;-86
2023/07/25 01:23:09;;;;;;;26.48;13.48;;;;;;;24.68;48.94;94959.38;4936041;28;20039;-85
2023/07/25 01:25:35;;;;;;;23.25;13.07;;;;;;;23.94;49.46;94889.44;4953120;29;20095;-85
2023/07/25 01:28:01;;;;;;;26.35;13.98;;;;;;;24.31;49.62;94929.47;4953365;28;20082;-85
2023/07/25 01:30:26;;;;;;;28.48;13.63;;;;;;;24.26;49.32;94922.41;4935806;28;20433;-85
2023/07/25 01:32:53;;;;;;;22.55;13.23;;;;;;;24.46;49.75;94963.72;4935199;29;20522;-85
2023/07/25 01:35:19;;;;;;;25.20;14.02;;;;;;;24.18;49.38;94905.25;4935485;29;20430;-85
2023/07/25 01:37:44;;;;;;;27.05;13.80;;;;;;;23.82;49.50;94832.78;4935955;29;20050;-85
2023/07/25 01:40:11;;;;;;;21.83;12.45;;;;;;;24.42;49.40;94923.03;4951866;29;20035;-85
2023/07/25 01:42:36;;;;;;;24.02;13.15;;;;;;;23.69;49.44;94804.34;4951288;29;20034;-85
2023/07/25 01:45:02;;;;;;;24.58;13.38;;;;;;;24.20;49.07;94886.72;4934098;29;20425;-85
2023/07/25 01:47:27;;;;;;;24.15;12.05;;;;;;;24.72;49.29;94969.09;4951903;28;20041;-85
2023/07/25 01:49:53;;;;;;;25.48;13.15;;;;;;;24.05;49.08;94862.50;4977039;28;20119;-85
2023/07/25 01:52:19;;;;;;;31.23;14.73;;;;;;;24.60;48.74;94948.44;4981978;28;20532;-85
2023/07/25 01:54:46;;;;;;;22.60;13.70;;;;;;;24.71;48.36;94964.06;4951499;29;20138;-85
2023/07/25 01:57:11;;;;;;;34.72;14.13;;;;;;;24.10;48.56;94865.69;4934812;29;20035;-85
2023/07/25 01:59:37;;;;;;;30.50;14.95;;;;;;;24.84;48.20;94976.25;4933492;29;20129;-86
2023/07/25 02:02:02;;;;;;;30.48;13.82;;;;;;;24.68;48.04;94973.72;4966325;28;20123;-86
2023/07/25 02:04:28;;;;;;;33.00;13.90;;;;;;;24.76;47.83;94971.88;4944012;28;20042;-85
2023/07/25 02:06:53;;;;;;;26.63;13.05;;;;;;;24.84;47.32;94966.16;4951302;29;20412;-86
2023/07/25 02:09:19;;;;;;;29.65;13.88;;;;;;;24.74;48.12;94972.22;4951080;29;20035;-85
2023/07/25 02:11:44;;;;;;;26.58;15.35;;;;;;;24.26;48.64;94938.66;4952633;28;20058;-85
2023/07/25 02:14:09;;;;;;;27.98;15.82;;;;;;;23.34;48.48;94799.97;4950345;29;20035;-86
2023/07/25 02:16:36;;;;;;;27.58;15.65;;;;;;;24.31;48.85;94954.63;4933616;29;20031;-86
2023/07/25 02:19:02;;;;;;;27.65;14.40;;;;;;;24.45;48.65;94967.59;4950438;28;20440;-85
2023/07/25 02:21:28;;;;;;;26.58;15.38;;;;;;;24.64;49.06;94997.31;4933297;29;20117;-85
2023/07/25 02:23:53;;;;;;;23.95;13.52;;;;;;;23.91;48.91;94882.03;4933547;28;20090;-86
2023/07/25 02:26:19;;;;;;;27.52;13.60;;;;;;;24.23;49.06;94934.00;4933888;28;20047;-86
2023/07/25 02:28:45;;;;;;;26.63;13.35;;;;;;;24.46;48.57;94964.53;4933100;29;20208;-86
2023/07/25 02:31:10;;;;;;;28.08;13.93;;;;;;;24.23;49.00;94961.09;4933203;28;20023;-86
2023/07/25 02:33:35;;;;;;;21.55;13.07;;;;;;;23.96;48.95;94932.38;4950549;29;20027;-85
2023/07/25 02:36:02;;;;;;;23.05;13.82;;;;;;;24.14;49.31;94998.47;4954630;28;20046;-85
2023/07/25 02:38:27;;;;;;;29.15;14.55;;;;;;;24.36;48.95;95018.56;4942012;28;20368;-85
2023/07/25 02:40:53;;;;;;;29.55;14.13;;;;;;;23.96;49.50;94962.97;4937124;29;20031;-85
2023/07/25 02:43:22;;;;;;;22.15;13.82;;;;;;;23.70;49.99;94938.59;4954772;29;20045;-86
2023/07/25 02:45:49;;;;;;;28.52;14.80;;;;;;;23.67;49.97;94929.25;4955152;29;20031;-85
2023/07/25 02:48:15;;;;;;;28.60;14.30;;;;;;;24.07;50.68;95025.44;4938335;28;20047;-85
2023/07/25 02:50:40;;;;;;;24.20;13.80;;;;;;;23.97;50.90;95001.66;4955326;29;20027;-85
2023/07/25 02:53:05;;;;;;;24.17;13.32;;;;;;;23.55;51.02;94940.28;4936381;29;20044;-85
2023/07/25 02:55:31;;;;;;;30.02;14.30;;;;;;;23.54;51.63;94963.06;4953063;29;20027;-85
2023/07/25 02:57:56;;;;;;;26.88;13.98;;;;;;;23.70;52.10;95008.97;4969060;28;20039;-86
2023/07/25 03:00:22;;;;;;;23.35;13.35;;;;;;;23.15;52.17;94926.38;4953767;29;20027;-85
2023/07/25 03:02:48;;;;;;;23.77;13.57;;;;;;;23.35;52.09;94946.84;4936255;28;20074;-86
2023/07/25 03:05:15;;;;;;;31.30;14.48;;;;;;;23.84;51.79;95015.41;4936489;28;20678;-86
2023/07/25 03:07:40;;;;;;;25.00;14.38;;;;;;;23.81;51.56;94989.03;4936009;29;20431;-85
2023/07/25 03:10:06;;;;;;;31.05;15.05;;;;;;;23.86;52.12;95012.34;4961787;28;20043;-86
2023/07/25 03:12:32;;;;;;;25.67;14.75;;;;;;;23.55;51.66;94948.41;4935976;28;20059;-85
2023/07/25 03:14:57;;;;;;;33.40;14.63;;;;;;;23.83;51.61;95013.06;4967882;28;20398;-85
2023/07/25 03:17:23;;;;;;;27.63;14.18;;;;;;;23.46;51.74;94939.69;4953019;29;20456;-85
2023/07/25 03:19:48;;;;;;;24.92;14.27;;;;;;;23.76;52.24;95002.09;4953314;29;20102;-86
2023/07/25 03:22:18;;;;;;;28.52;14.32;;;;;;;22.60;53.33;94883.22;4936191;29;20043;-86
2023/07/25 03:24:43;;;;;;;33.40;14.57;;;;;;;23.38;53.04;95001.03;4954037;28;20530;-86
2023/07/25 03:27:09;;;;;;;26.42;14.73;;;;;;;23.43;53.46;95000.72;4935999;29;20041;-85
2023/07/25 03:29:34;;;;;;;23.17;13.70;;;;;;;23.50;53.05;94989.28;4934308;29;20031;-85
2023/07/25 03:32:00;;;;;;;26.35;14.38;;;;;;;23.37;53.12;94993.25;5002157;28;20028;-85
2023/07/25 03:34:25;;;;;;;28.25;13.90;;;;;;;23.56;53.09;95017.63;4935981;29;20023;-85
2023/07/25 03:36:51;;;;;;;35.88;14.82;;;;;;;23.23;52.97;94974.84;4935409;29;20027;-86
2023/07/25 03:39:16;;;;;;;31.80;15.63;;;;;;;23.58;52.81;95011.84;4948908;29;20028;-86
2023/07/25 03:41:41;;;;;;;32.15;15.65;;;;;;;23.47;52.90;94992.69;4993809;28;20033;-85
2023/07/25 03:44:07;;;;;;;36.97;16.13;;;;;;;23.37;52.63;94968.91;4935714;28;20408;-85
2023/07/25 03:46:32;;;;;;;34.72;15.40;;;;;;;23.24;52.78;94952.06;4935579;29;20035;-85
2023/07/25 03:48:58;;;;;;;30.83;15.48;;;;;;;22.95;53.29;94941.88;4935592;29;20035;-85
2023/07/25 03:51:23;;;;;;;28.02;15.07;;;;;;;23.29;53.09;94978.03;4925261;29;20084;-85
2023/07/25 03:53:49;;;;;;;30.35;17.38;;;;;;;23.13;53.24;94953.78;4926750;28;20763;-85
2023/07/25 03:56:14;;;;;;;28.05;15.63;;;;;;;23.44;53.38;95004.22;4923939;29;20035;-86
2023/07/25 03:58:40;;;;;;;34.60;16.05;;;;;;;23.21;53.34;94960.91;4928863;28;20035;-85
2023/07/25 04:01:05;;;;;;;30.85;15.45;;;;;;;23.49;52.69;94986.94;4952220;29;20123;-85
2023/07/25 04:03:30;;;;;;;30.67;15.25;;;;;;;23.45;52.36;94954.38;4938803;29;20114;-86
2023/07/25 04:05:56;;;;;;;29.75;15.85;;;;;;;23.22;52.96;94924.59;4999505;28;20580;-85
2023/07/25 04:08:21;;;;;;;31.40;16.33;;;;;;;23.62;52.95;95010.78;4949740;28;20027;-85
2023/07/25 04:10:47;;;;;;;30.50;15.13;;;;;;;23.78;52.28;94997.91;4968047;28;20027;-86
2023/07/25 04:13:12;;;;;;;30.90;14.75;;;;;;;23.35;51.69;94917.06;4953122;29;20063;-85
2023/07/25 04:15:38;;;;;;;30.15;15.20;;;;;;;23.95;51.45;95007.47;4935857;29;20545;-85
2023/07/25 04:18:03;;;;;;;29.98;14.80;;;;;;;23.58;50.99;94942.25;4953556;29;20043;-85
2023/07/25 04:20:29;;;;;;;26.85;14.40;;;;;;;24.03;51.36;94998.28;4951919;29;20063;-85
2023/07/25 04:22:54;;;;;;;28.90;14.50;;;;;;;23.67;51.58;94975.28;4953511;29;20055;-86
2023/07/25 04:25:19;;;;;;;27.92;15.35;;;;;;;24.08;51.36;95019.66;4952993;29;20452;-85
2023/07/25 04:27:45;;;;;;;33.58;16.75;;;;;;;24.13;51.12;95018.56;4952782;29;20031;-85
2023/07/25 04:30:11;;;;;;;33.10;15.48;;;;;;;23.90;51.48;94985.31;4952123;29;20035;-85
2023/07/25 04:32:36;;;;;;;28.50;14.85;;;;;;;23.38;51.27;94895.50;4952659;29;20035;-85
2023/07/25 04:35:01;;;;;;;34.72;15.85;;;;;;;23.87;51.53;94962.47;4942211;29;20127;-86
2023/07/25 04:37:27;;;;;;;28.77;16.20;;;;;;;24.03;51.16;94984.75;4933658;29;20141;-85
2023/07/25 04:39:52;;;;;;;34.58;15.50;;;;;;;24.29;51.08;95008.41;4928139;28;20465;-86
2023/07/25 04:42:18;;;;;;;32.50;15.23;;;;;;;23.97;50.21;94947.50;4952403;29;20032;-86
2023/07/25 04:44:43;;;;;;;33.92;15.93;;;;;;;24.34;50.99;95002.66;4952312;29;20043;-85
2023/07/25 04:47:09;;;;;;;38.20;16.77;;;;;;;23.81;50.68;94931.41;4919105;28;20066;-85
2023/07/25 04:49:34;;;;;;;32.00;15.60;;;;;;;24.21;50.97;94990.47;4949194;29;20043;-86
2023/07/25 04:52:00;;;;;;;53.35;16.70;;;;;;;23.17;50.97;94810.50;4935175;29;20490;-86
2023/07/25 04:54:25;;;;;;;33.42;15.73;;;;;;;24.12;51.10;94957.41;4952048;29;20024;-86
2023/07/25 04:56:51;;;;;;;32.95;15.00;;;;;;;23.84;51.50;94922.56;4934681;29;20043;-85
2023/07/25 04:59:16;;;;;;;36.38;16.42;;;;;;;24.09;50.98;94936.47;4949413;28;20041;-86
2023/07/25 05:01:41;;;;;;;35.55;16.25;;;;;;;24.42;50.59;94974.50;4933882;29;20094;-86
2023/07/25 05:04:07;;;;;;;33.22;16.65;;;;;;;23.65;50.28;94846.84;4953265;29;20035;-84
2023/07/25 05:06:32;;;;;;;36.75;17.27;;;;;;;23.98;49.89;94887.56;4958043;29;20031;-84
2023/07/25 05:08:58;;;;;;;38.75;17.55;;;;;;;24.10;49.48;94883.88;4958967;29;20035;-84
2023/07/25 05:11:23;;;;;;;33.58;16.50;;;;;;;24.74;49.83;94979.59;4972272;28;20045;-84
2023/07/25 05:13:48;;;;;;;32.63;15.48;;;;;;;24.66;49.91;94967.88;5018132;28;20030;-84
2023/07/25 05:16:14;;;;;;;31.88;15.82;;;;;;;24.77;49.54;94970.72;5015862;28;20069;-84
2023/07/25 05:18:39;;;;;;;32.97;16.52;;;;;;;24.80;49.50;94969.97;5004365;28;20088;-85
2023/07/25 05:21:05;;;;;;;34.42;16.83;;;;;;;24.81;49.82;94972.31;5029862;28;20099;-85
2023/07/25 05:23:31;;;;;;;40.65;16.50;;;;;;;24.98;49.10;94985.34;5043689;28;20036;-84
2023/07/25 05:25:57;;;;;;;35.33;17.33;;;;;;;24.43;48.71;94888.56;5014606;28;20062;-84
2023/07/25 05:28:23;;;;;;;41.53;16.90;;;;;;;24.59;48.73;94917.03;5004468;28;20354;-84
2023/07/25 05:30:49;;;;;;;31.83;16.65;;;;;;;25.05;48.80;94983.88;5002700;28;20030;-85
2023/07/25 05:33:14;;;;;;;44.60;17.30;;;;;;;24.76;48.83;94939.34;5016163;28;20113;-84
2023/07/25 05:35:40;;;;;;;41.05;18.75;;;;;;;25.14;48.76;94982.44;5016438;28;20025;-84
2023/07/25 05:38:07;;;;;;;39.55;15.93;;;;;;;24.58;48.71;94901.16;5016924;28;20048;-84
2023/07/25 05:40:34;;;;;;;41.30;17.92;;;;;;;24.61;48.67;94906.63;5009465;28;20105;-84
2023/07/25 05:43:00;;;;;;;44.13;17.48;;;;;;;24.57;49.01;94900.38;5004830;28;20057;-84
2023/07/25 05:45:26;;;;;;;29.27;17.38;;;;;;;24.62;49.28;94920.97;5042680;28;20045;-84
2023/07/25 05:47:51;;;;;;;45.55;17.50;;;;;;;24.60;49.60;94909.69;5009476;28;20059;-84
2023/07/25 05:50:17;;;;;;;34.97;16.45;;;;;;;24.54;49.59;94903.03;5017491;28;20036;-84
2023/07/25 05:52:42;;;;;;;31.48;16.10;;;;;;;25.07;49.58;94974.22;5003658;28;20030;-83
2023/07/25 05:55:07;;;;;;;39.75;16.40;;;;;;;24.60;49.65;94885.28;5044940;28;20034;-83
2023/07/25 05:57:33;;;;;;;51.72;18.13;;;;;;;25.13;49.76;94966.53;5005627;28;20026;-84
2023/07/25 05:59:59;;;;;;;42.63;16.80;;;;;;;25.03;49.70;94959.03;5024954;28;20033;-84
2023/07/25 06:02:24;;;;;;;39.95;16.17;;;;;;;24.64;49.18;94879.94;5016918;28;20095;-84
2023/07/25 06:04:50;;;;;;;36.85;16.02;;;;;;;25.34;48.80;94964.03;4999240;28;20049;-83
2023/07/25 06:07:15;;;;;;;33.40;15.32;;;;;;;25.06;48.64;94907.53;5002129;28;20030;-83
2023/07/25 06:09:41;;;;;;;37.47;15.57;;;;;;;25.23;48.07;94919.72;5014502;28;20070;-83
2023/07/25 06:12:08;;;;;;;54.63;18.13;;;;;;;25.14;48.70;94900.25;4970000;28;20066;-83
2023/07/25 06:14:34;;;;;;;62.13;17.42;;;;;;;25.42;49.00;94932.31;4941716;29;20545;-83
2023/07/25 06:16:59;;;;;;;40.53;16.17;;;;;;;25.52;48.75;94939.78;4958206;28;20049;-83
2023/07/25 06:19:25;;;;;;;24.90;15.13;;;;;;;25.73;48.47;94950.84;4950245;28;20039;-85
2023/07/25 06:21:50;;;;;;;38.40;16.23;;;;;;;25.52;48.45;94915.34;4965649;28;20044;-83
2023/07/25 06:24:16;;;;;;;36.20;16.58;;;;;;;25.47;48.13;94918.41;4966293;28;20027;-84
2023/07/25 06:26:42;;;;;;;34.70;15.43;;;;;;;25.41;47.63;94876.44;4959801;29;20050;-84
2023/07/25 06:29:07;;;;;;;28.95;14.82;;;;;;;25.68;47.22;94913.97;4931010;28;20055;-84
2023/07/25 06:31:33;;;;;;;33.53;14.77;;;;;;;25.41;46.88;94854.72;4957775;29;20046;-84
2023/07/25 06:33:59;;;;;;;31.55;14.85;;;;;;;25.59;46.56;94886.34;4944424;29;20071;-84
2023/07/25 06:36:24;;;;;;;34.85;15.55;;;;;;;25.95;46.24;94911.81;4964275;29;20046;-83
2023/07/25 06:38:50;;;;;;;38.10;15.82;;;;;;;25.77;45.94;94870.19;4946512;28;20054;-84
2023/07/25 06:41:15;;;;;;;36.72;15.32;;;;;;;25.57;46.80;94839.75;4963513;29;20122;-84
2023/07/25 06:43:41;;;;;;;50.67;15.32;;;;;;;25.94;45.95;94885.06;4945697;29;20035;-84
2023/07/25 06:46:06;;;;;;;38.40;16.50;;;;;;;25.72;45.45;94841.44;4946318;29;20031;-84
2023/07/25 06:48:31;;;;;;;54.85;18.38;;;;;;;26.10;46.29;94907.25;4946300;28;20027;-84
2023/07/25 06:50:57;;;;;;;41.55;17.48;;;;;;;25.95;46.52;94892.81;4963889;29;20075;-84
2023/07/25 06:53:22;;;;;;;47.38;17.55;;;;;;;25.41;46.60;94817.50;4946769;29;20031;-84
2023/07/25 06:55:48;;;;;;;60.80;15.98;;;;;;;25.98;45.32;94892.06;4964812;29;20492;-84
2023/07/25 06:58:14;;;;;;;47.40;15.98;;;;;;;25.95;44.88;94878.44;4962757;29;20035;-85
2023/07/25 07:00:39;;;;;;;40.58;13.50;;;;;;;26.07;44.62;94906.09;4978152;28;20527;-85
2023/07/25 07:03:05;;;;;;;28.08;14.23;;;;;;;25.98;44.21;94864.91;4946002;29;20035;-85
2023/07/25 07:05:32;;;;;;;31.27;13.52;;;;;;;25.77;43.34;94824.03;4946697;29;20089;-84
2023/07/25 07:07:58;;;;;;;30.52;14.07;;;;;;;25.91;43.15;94842.34;4947471;29;20045;-84
2023/07/25 07:10:24;;;;;;;27.20;13.68;;;;;;;26.12;42.62;94856.81;4963550;29;20046;-85
2023/07/25 07:12:50;;;;;;;20.80;13.25;;;;;;;26.21;42.34;94852.97;4963733;29;20058;-84
2023/07/25 07:15:16;;;;;;;37.42;14.57;;;;;;;26.73;42.35;94928.63;4946446;29;20035;-84
2023/07/25 07:17:42;;;;;;;25.00;13.90;;;;;;;26.77;43.01;94926.69;4960094;29;20566;-85
2023/07/25 07:20:09;;;;;;;31.50;14.30;;;;;;;26.68;42.56;94899.06;4934116;28;20478;-86
2023/07/25 07:22:35;;;;;;;26.55;13.43;;;;;;;25.52;42.51;94709.00;4925026;28;20074;-86
2023/07/25 07:25:00;;;;;;;28.73;14.20;;;;;;;26.62;42.73;94880.78;4936619;29;20141;-86
2023/07/25 07:27:26;;;;;;;28.90;14.18;;;;;;;25.17;42.07;94691.38;4955582;29;20028;-87
2023/07/25 07:29:54;;;;;;;32.05;16.58;;;;;;;26.45;41.89;94846.91;4938625;29;20031;-86
2023/07/25 07:32:20;;;;;;;29.33;16.05;;;;;;;26.25;42.05;94832.03;4944054;29;20028;-86
2023/07/25 07:34:45;;;;;;;32.60;14.43;;;;;;;26.42;41.04;94840.28;4936766;28;20508;-86
2023/07/25 07:37:10;;;;;;;29.73;13.98;;;;;;;25.72;40.78;94718.44;4950830;28;20035;-86
2023/07/25 07:39:38;;;;;;;24.90;13.30;;;;;;;26.88;40.48;94886.69;4938833;28;20045;-86
2023/07/25 07:42:04;;;;;;;31.40;13.63;;;;;;;26.83;40.76;94887.06;4922007;29;20039;-86
2023/07/25 07:44:29;;;;;;;25.58;13.73;;;;;;;27.03;40.50;94897.66;4954630;28;20039;-86
2023/07/25 07:46:55;;;;;;;28.08;15.52;;;;;;;26.94;40.54;94876.22;4954937;29;20039;-85
2023/07/25 07:49:20;;;;;;;26.98;14.05;;;;;;;26.99;40.94;94889.50;4954972;29;20035;-85
2023/07/25 07:51:46;;;;;;;28.23;13.73;;;;;;;27.08;40.17;94870.81;4937949;29;20034;-86
2023/07/25 07:54:11;;;;;;;25.88;13.35;;;;;;;27.26;40.47;94876.31;4936871;28;20039;-85
2023/07/25 07:56:36;;;;;;;31.63;14.60;;;;;;;27.04;40.73;94823.00;4946709;28;20130;-86
2023/07/25 07:59:02;;;;;;;26.75;13.05;;;;;;;27.24;41.11;94851.41;4985373;28;20039;-85
2023/07/25 08:01:27;;;;;;;31.73;13.18;;;;;;;27.56;40.55;94884.13;4936112;29;20036;-86
2023/07/25 08:03:54;;;;;;;30.70;13.32;;;;;;;27.70;39.69;94872.44;4944515;29;20034;-85
2023/07/25 08:06:19;;;;;;;27.17;14.43;;;;;;;27.71;39.94;94869.34;4970186;28;20032;-86
2023/07/25 08:08:45;;;;;;;27.05;13.75;;;;;;;27.23;39.71;94768.97;4964667;28;20052;-86
2023/07/25 08:11:10;;;;;;;32.58;12.98;;;;;;;27.85;39.42;94852.97;4939691;29;20056;-85
2023/07/25 08:13:36;;;;;;;24.58;13.40;;;;;;;27.80;39.14;94847.16;4946308;28;20092;-85
2023/07/25 08:16:01;;;;;;;24.77;14.50;;;;;;;27.63;39.27;94813.31;4943140;29;20039;-85
2023/07/25 08:18:27;;;;;;;32.22;13.70;;;;;;;27.78;39.29;94812.13;4933061;29;20092;-85
2023/07/25 08:20:57;;;;;;;34.97;12.57;;;;;;;28.01;39.56;94842.44;4936376;29;20558;-85
2023/07/25 08:23:23;;;;;;;25.92;12.85;;;;;;;28.01;39.17;94828.81;4954299;29;20038;-85
2023/07/25 08:25:49;;;;;;;26.13;11.98;;;;;;;28.11;38.42;94834.63;4936210;29;20045;-85
2023/07/25 08:28:15;;;;;;;38.75;12.18;;;;;;;27.94;38.49;94798.84;4936117;29;20449;-86
2023/07/25 08:30:42;;;;;;;27.25;13.00;;;;;;;28.40;38.81;94842.38;4935853;29;20027;-86
2023/07/25 08:33:07;;;;;;;28.92;12.35;;;;;;;28.11;38.71;94791.03;4931911;29;20042;-86
2023/07/25 08:35:33;;;;;;;32.92;12.40;;;;;;;28.22;38.12;94784.41;4922979;28;20031;-86
2023/07/25 08:37:58;;;;;;;31.90;14.50;;;;;;;27.65;38.03;94691.13;4951976;29;20429;-86
2023/07/25 08:40:24;;;;;;;28.70;12.57;;;;;;;27.13;38.35;94605.66;4953322;29;20039;-86
2023/07/25 08:42:50;;;;;;;41.95;14.43;;;;;;;28.78;38.66;94834.44;4936788;29;20678;-86
2023/07/25 08:45:16;;;;;;;25.65;13.50;;;;;;;28.77;38.69;94817.28;4957049;28;20128;-86
2023/07/25 08:47:45;;;;;;;37.25;13.80;;;;;;;28.83;38.87;94814.94;4929253;28;20077;-86
2023/07/25 08:50:17;;;;;;;31.52;12.63;;;;;;;28.89;38.80;94807.88;4953974;29;20062;-86
2023/07/25 08:52:51;;;;;;;30.05;13.77;;;;;;;28.82;38.18;94791.53;4954199;29;20120;-86
2023/07/25 08:55:17;;;;;;;22.45;13.13;;;;;;;28.78;37.88;94779.84;4999508;28;20109;-86
2023/07/25 08:57:44;;;;;;;33.53;14.65;;;;;;;29.06;37.54;94804.25;4918168;28;20047;-86
2023/07/25 09:00:12;;;;;;;27.48;13.40;;;;;;;29.07;38.44;94810.47;4935983;28;20042;-85
2023/07/25 09:02:38;;;;;;;27.17;12.85;;;;;;;29.23;38.31;94816.19;4953309;29;20445;-85
2023/07/25 09:05:05;;;;;;;33.53;13.05;;;;;;;28.90;37.96;94760.28;4952889;29;20058;-86
2023/07/25 09:07:30;;;;;;;23.83;12.43;;;;;;;29.15;38.14;94769.06;4949245;28;20427;-85
2023/07/25 09:09:56;;;;;;;35.13;12.40;;;;;;;29.12;37.53;94772.59;4942546;28;20035;-86
2023/07/25 09:12:22;;;;;;;24.48;13.05;;;;;;;29.50;37.53;94806.28;4952658;29;20039;-86
2023/07/25 09:14:48;;;;;;;22.05;11.85;;;;;;;29.42;37.61;94782.16;4951963;29;20050;-86
2023/07/25 09:17:13;;;;;;;22.25;12.15;;;;;;;29.58;38.00;94793.31;4942873;28;20127;-85
2023/07/25 09:19:39;;;;;;;34.00;12.55;;;;;;;29.74;37.51;94809.97;4923982;29;20504;-86
2023/07/25 09:22:04;;;;;;;20.63;12.25;;;;;;;29.74;37.27;94779.91;4917343;28;20118;-85
2023/07/25 09:24:36;;;;;;;26.60;13.10;;;;;;;29.84;36.89;94806.34;4916729;29;20032;-85
2023/07/25 09:27:01;;;;;;;24.45;11.57;;;;;;;29.80;36.60;94781.00;4934990;28;20039;-87
2023/07/25 09:29:30;;;;;;;29.00;12.63;;;;;;;30.05;36.49;94793.69;4954190;29;20417;-87
2023/07/25 09:31:56;;;;;;;33.85;12.90;;;;;;;29.39;36.97;94682.66;4936162;29;20031;-87
2023/07/25 09:34:25;;;;;;;23.35;12.50;;;;;;;30.14;37.09;94783.78;4953367;29;20043;-87
2023/07/25 09:36:51;;;;;;;30.17;12.60;;;;;;;30.07;36.91;94755.75;4935814;28;20136;-87
2023/07/25 09:39:17;;;;;;;27.85;11.90;;;;;;;30.25;35.96;94789.91;4938523;28;20486;-87
2023/07/25 09:41:45;;;;;;;24.85;11.77;;;;;;;30.19;36.43;94758.75;4934105;28;20035;-87
2023/07/25 09:44:11;;;;;;;25.15;11.88;;;;;;;30.53;36.81;94783.34;5000456;28;20070;-87
2023/07/25 09:46:36;;;;;;;24.67;11.85;;;;;;;30.62;36.01;94780.09;4977367;28;20497;-88
2023/07/25 09:49:02;;;;;;;24.20;11.85;;;;;;;30.09;35.76;94706.91;4935543;28;20032;-87
2023/07/25 09:51:27;;;;;;;45.17;12.40;;;;;;;30.53;35.48;94733.31;4936372;28;20031;-87
2023/07/25 09:53:54;;;;;;;29.95;14.25;;;;;;;30.68;35.76;94718.22;4958862;28;20054;-87
2023/07/25 09:56:24;;;;;;;26.27;11.63;;;;;;;31.65;34.77;94782.09;4952915;29;20050;-88
2023/07/25 09:58:51;;;;;;;21.63;12.30;;;;;;;31.74;33.58;94664.44;4952927;28;20047;-88
2023/07/25 10:01:18;;;;;;;32.15;11.55;;;;;;;32.97;32.30;94722.59;4952457;29;20047;-87
2023/07/25 10:03:44;;;;;;;27.98;12.15;;;;;;;34.02;31.40;94764.38;4953139;29;20035;-88
2023/07/25 10:06:10;;;;;;;22.52;10.70;;;;;;;34.43;30.04;94711.34;4952723;29;20161;-87
2023/07/25 10:08:39;;;;;;;27.58;11.75;;;;;;;35.24;28.20;94734.88;4967173;28;20039;-88
2023/07/25 10:11:05;;;;;;;27.42;11.27;;;;;;;35.50;27.19;94719.81;4930886;29;20065;-87
2023/07/25 10:13:33;;;;;;;28.45;11.02;;;;;;;35.49;27.33;94665.88;4939448;28;20070;-87
2023/07/25 10:16:04;;;;;;;30.85;11.43;;;;;;;36.33;27.13;94703.50;4935347;28;20138;-88
2023/07/25 10:18:32;;;;;;;;;;;;;;;36.99;26.20;94734.56;4952474;29;20461;-87
2023/07/25 10:20:58;;;;;;;23.58;10.95;;;;;;;37.06;25.61;94653.34;4934900;28;19934;-87
2023/07/25 10:23:31;;;;;;;28.77;10.60;;;;;;;37.71;24.58;94729.69;4951394;29;20047;-87
2023/07/25 10:26:09;;;;;;;38.40;12.48;;;;;;;38.28;24.77;94728.03;4935684;29;20061;-87
2023/07/25 10:28:35;;;;;;;21.88;11.63;;;;;;;37.99;25.25;94658.50;4936427;28;20047;-87
2023/07/25 10:31:00;;;;;;;25.20;10.68;;;;;;;38.49;24.42;94701.34;4953425;29;20043;-88
2023/07/25 10:33:25;;;;;;;34.63;13.15;;;;;;;38.12;24.50;94601.75;4936302;29;20532;-87
2023/07/25 10:35:52;;;;;;;23.13;11.98;;;;;;;39.02;24.07;94673.94;4952546;28;20676;-87
2023/07/25 10:38:33;;;;;;;29.15;10.75;;;;;;;39.27;23.44;94654.09;4953152;29;20039;-87
2023/07/25 10:41:13;;;;;;;30.40;10.63;;;;;;;39.57;23.58;94698.59;4935827;29;20047;-86
2023/07/25 10:43:44;;;;;;;23.55;9.98;;;;;;;39.59;23.58;94690.56;4926749;29;20042;-87
2023/07/25 10:46:14;;;;;;;20.75;10.88;;;;;;;39.89;23.23;94681.13;4926911;29;20039;-87
2023/07/25 10:48:47;;;;;;;37.65;10.98;;;;;;;39.78;22.82;94658.66;4935520;29;20178;-86
2023/07/25 10:51:15;;;;;;;29.08;10.13;;;;;;;39.46;22.50;94579.84;4935052;29;20031;-87
2023/07/25 10:54:01;;;;;;;25.77;10.65;;;;;;;39.97;22.19;94634.31;4952428;29;20118;-86
2023/07/25 10:56:29;;;;;;;32.92;10.02;;;;;;;39.86;22.27;94611.88;4917358;28;20044;-87
2023/07/25 10:59:07;;;;;;;21.23;10.20;;;;;;;40.31;21.98;94652.34;4952813;29;20023;-86
2023/07/25 11:01:51;;;;;;;31.88;10.40;;;;;;;40.36;21.88;94638.53;4938146;29;20035;-87
2023/07/25 11:04:28;;;;;;;28.33;9.60;;;;;;;40.45;22.23;94649.53;4960101;28;20386;-86
2023/07/25 11:07:14;;;;;;;24.05;9.77;;;;;;;39.90;22.62;94562.50;5002982;28;20039;-87
2023/07/25 11:09:41;;;;;;;30.05;10.05;;;;;;;40.40;21.78;94583.56;4951688;28;20579;-86
2023/07/25 11:12:08;;;;;;;28.77;10.35;;;;;;;40.40;21.71;94591.13;4938807;28;20134;-86